sensor_id;sensor_type;location;lat;lon;timestamp;temperature;humidity
47600;DHT22;33323;52.124;6.018;2023-12-04T00:02:07;0.80;99.90
47600;DHT22;33323;52.124;6.018;2023-12-04T00:04:35;0.70;99.90
47600;DHT22;33323;52.124;6.018;2023-12-04T00:07:03;0.70;99.90
47600;DHT22;33323;52.124;6.018;2023-12-04T00:09:30;0.70;99.90
47600;DHT22;33323;52.124;6.018;2023-12-04T00:11:57;0.70;99.90
47600;DHT22;33323;52.124;6.018;2023-12-04T00:14:25;0.70;99.90
47600;DHT22;33323;52.124;6.018;2023-12-04T00:16:52;0.70;99.90
47600;DHT22;33323;52.124;6.018;2023-12-04T00:19:19;0.70;99.90
47600;DHT22;33323;52.124;6.018;2023-12-04T00:21:46;0.70;99.90
47600;DHT22;33323;52.124;6.018;2023-12-04T00:24:14;0.60;99.90
47600;DHT22;33323;52.124;6.018;2023-12-04T00:26:41;0.70;99.90
47600;DHT22;33323;52.124;6.018;2023-12-04T00:29:08;0.60;99.90
47600;DHT22;33323;52.124;6.018;2023-12-04T00:31:36;0.60;99.90
47600;DHT22;33323;52.124;6.018;2023-12-04T00:34:03;0.70;99.90
47600;DHT22;33323;52.124;6.018;2023-12-04T00:36:31;0.70;99.90
47600;DHT22;33323;52.124;6.018;2023-12-04T00:38:58;0.70;99.90
47600;DHT22;33323;52.124;6.018;2023-12-04T00:41:25;0.70;99.90
47600;DHT22;33323;52.124;6.018;2023-12-04T00:43:53;0.60;99.90
47600;DHT22;33323;52.124;6.018;2023-12-04T00:46:20;0.60;99.90
47600;DHT22;33323;52.124;6.018;2023-12-04T00:48:49;0.60;99.90
47600;DHT22;33323;52.124;6.018;2023-12-04T00:51:17;0.60;99.90
47600;DHT22;33323;52.124;6.018;2023-12-04T00:53:44;0.60;99.90
47600;DHT22;33323;52.124;6.018;2023-12-04T00:56:12;0.60;99.90
47600;DHT22;33323;52.124;6.018;2023-12-04T00:58:39;0.60;99.90
47600;DHT22;33323;52.124;6.018;2023-12-04T01:01:07;0.70;99.90
47600;DHT22;33323;52.124;6.018;2023-12-04T01:03:34;0.70;99.90
47600;DHT22;33323;52.124;6.018;2023-12-04T01:06:02;0.70;99.90
47600;DHT22;33323;52.124;6.018;2023-12-04T01:08:29;0.60;99.90
47600;DHT22;33323;52.124;6.018;2023-12-04T01:10:56;0.70;99.90
47600;DHT22;33323;52.124;6.018;2023-12-04T01:13:23;0.70;99.90
47600;DHT22;33323;52.124;6.018;2023-12-04T01:15:51;0.70;99.90
47600;DHT22;33323;52.124;6.018;2023-12-04T01:18:18;0.60;99.90
47600;DHT22;33323;52.124;6.018;2023-12-04T01:20:46;0.70;99.90
47600;DHT22;33323;52.124;6.018;2023-12-04T01:23:13;0.70;99.90
47600;DHT22;33323;52.124;6.018;2023-12-04T01:25:41;0.70;99.90
47600;DHT22;33323;52.124;6.018;2023-12-04T01:28:08;0.70;99.90
47600;DHT22;33323;52.124;6.018;2023-12-04T01:30:35;0.70;99.90
47600;DHT22;33323;52.124;6.018;2023-12-04T01:33:03;0.70;99.90
47600;DHT22;33323;52.124;6.018;2023-12-04T01:35:30;0.70;99.90
47600;DHT22;33323;52.124;6.018;2023-12-04T01:37:58;0.70;99.90
47600;DHT22;33323;52.124;6.018;2023-12-04T01:40:26;0.70;99.90
47600;DHT22;33323;52.124;6.018;2023-12-04T01:42:53;0.70;99.90
47600;DHT22;33323;52.124;6.018;2023-12-04T01:45:21;0.70;99.90
47600;DHT22;33323;52.124;6.018;2023-12-04T01:47:48;0.70;99.90
47600;DHT22;33323;52.124;6.018;2023-12-04T01:50:16;0.60;99.90
47600;DHT22;33323;52.124;6.018;2023-12-04T01:52:44;0.60;99.90
47600;DHT22;33323;52.124;6.018;2023-12-04T01:55:11;0.60;99.90
47600;DHT22;33323;52.124;6.018;2023-12-04T01:57:39;0.60;99.90
47600;DHT22;33323;52.124;6.018;2023-12-04T02:00:07;0.60;99.90
47600;DHT22;33323;52.124;6.018;2023-12-04T02:02:39;0.60;99.90
47600;DHT22;33323;52.124;6.018;2023-12-04T02:05:08;0.60;99.90
47600;DHT22;33323;52.124;6.018;2023-12-04T02:07:35;0.60;99.90
47600;DHT22;33323;52.124;6.018;2023-12-04T02:10:04;0.60;99.90
47600;DHT22;33323;52.124;6.018;2023-12-04T02:12:33;0.70;99.90
47600;DHT22;33323;52.124;6.018;2023-12-04T02:15:01;0.60;99.90
47600;DHT22;33323;52.124;6.018;2023-12-04T02:17:29;0.60;99.90
47600;DHT22;33323;52.124;6.018;2023-12-04T02:19:57;0.60;99.90
47600;DHT22;33323;52.124;6.018;2023-12-04T02:22:24;0.60;99.90
47600;DHT22;33323;52.124;6.018;2023-12-04T02:24:51;0.60;99.90
47600;DHT22;33323;52.124;6.018;2023-12-04T02:27:25;0.60;99.90
47600;DHT22;33323;52.124;6.018;2023-12-04T02:29:59;0.60;99.90
47600;DHT22;33323;52.124;6.018;2023-12-04T02:32:31;0.60;99.90
47600;DHT22;33323;52.124;6.018;2023-12-04T02:35:04;0.60;99.90
47600;DHT22;33323;52.124;6.018;2023-12-04T02:37:34;0.50;99.90
47600;DHT22;33323;52.124;6.018;2023-12-04T02:40:02;0.60;99.90
47600;DHT22;33323;52.124;6.018;2023-12-04T02:42:30;0.60;99.90
47600;DHT22;33323;52.124;6.018;2023-12-04T02:44:58;0.60;99.90
47600;DHT22;33323;52.124;6.018;2023-12-04T02:47:25;0.60;99.90
47600;DHT22;33323;52.124;6.018;2023-12-04T02:49:53;0.60;99.90
47600;DHT22;33323;52.124;6.018;2023-12-04T02:52:20;0.60;99.90
47600;DHT22;33323;52.124;6.018;2023-12-04T02:54:47;0.60;99.90
47600;DHT22;33323;52.124;6.018;2023-12-04T02:57:14;0.60;99.90
47600;DHT22;33323;52.124;6.018;2023-12-04T02:59:42;0.60;99.90
47600;DHT22;33323;52.124;6.018;2023-12-04T03:02:10;0.60;99.90
47600;DHT22;33323;52.124;6.018;2023-12-04T03:04:37;0.60;99.90
47600;DHT22;33323;52.124;6.018;2023-12-04T03:07:04;0.60;99.90
47600;DHT22;33323;52.124;6.018;2023-12-04T03:09:31;0.60;99.90
47600;DHT22;33323;52.124;6.018;2023-12-04T03:12:16;0.60;99.90
47600;DHT22;33323;52.124;6.018;2023-12-04T03:14:43;0.60;99.90
47600;DHT22;33323;52.124;6.018;2023-12-04T03:17:11;0.60;99.90
47600;DHT22;33323;52.124;6.018;2023-12-04T03:19:38;0.60;99.90
47600;DHT22;33323;52.124;6.018;2023-12-04T03:22:06;0.70;99.90
47600;DHT22;33323;52.124;6.018;2023-12-04T03:24:33;0.60;99.90
47600;DHT22;33323;52.124;6.018;2023-12-04T03:27:00;0.60;99.90
47600;DHT22;33323;52.124;6.018;2023-12-04T03:29:28;0.60;99.90
47600;DHT22;33323;52.124;6.018;2023-12-04T03:31:55;0.60;99.90
47600;DHT22;33323;52.124;6.018;2023-12-04T03:34:22;0.60;99.90
47600;DHT22;33323;52.124;6.018;2023-12-04T03:36:51;0.60;99.90
47600;DHT22;33323;52.124;6.018;2023-12-04T03:39:18;0.60;99.90
47600;DHT22;33323;52.124;6.018;2023-12-04T03:41:47;0.70;99.90
47600;DHT22;33323;52.124;6.018;2023-12-04T03:44:14;0.70;99.90
47600;DHT22;33323;52.124;6.018;2023-12-04T03:46:41;0.60;99.90
47600;DHT22;33323;52.124;6.018;2023-12-04T03:49:08;0.60;99.90
47600;DHT22;33323;52.124;6.018;2023-12-04T03:51:35;0.60;99.90
47600;DHT22;33323;52.124;6.018;2023-12-04T03:54:02;0.60;99.90
47600;DHT22;33323;52.124;6.018;2023-12-04T03:56:29;0.60;99.90
47600;DHT22;33323;52.124;6.018;2023-12-04T03:58:56;0.60;99.90
47600;DHT22;33323;52.124;6.018;2023-12-04T04:01:24;0.70;99.90
47600;DHT22;33323;52.124;6.018;2023-12-04T04:03:51;0.60;99.90
47600;DHT22;33323;52.124;6.018;2023-12-04T04:06:18;0.60;99.90
47600;DHT22;33323;52.124;6.018;2023-12-04T04:08:45;0.60;99.90
47600;DHT22;33323;52.124;6.018;2023-12-04T04:11:12;0.60;99.90
47600;DHT22;33323;52.124;6.018;2023-12-04T04:13:39;0.60;99.90
47600;DHT22;33323;52.124;6.018;2023-12-04T04:16:07;0.60;99.90
47600;DHT22;33323;52.124;6.018;2023-12-04T04:18:34;0.60;99.90
47600;DHT22;33323;52.124;6.018;2023-12-04T04:21:02;0.60;99.90
47600;DHT22;33323;52.124;6.018;2023-12-04T04:23:29;0.60;99.90
47600;DHT22;33323;52.124;6.018;2023-12-04T04:25:56;0.60;99.90
47600;DHT22;33323;52.124;6.018;2023-12-04T04:28:23;0.60;99.90
47600;DHT22;33323;52.124;6.018;2023-12-04T04:30:50;0.60;99.90
47600;DHT22;33323;52.124;6.018;2023-12-04T04:33:17;0.60;99.90
47600;DHT22;33323;52.124;6.018;2023-12-04T04:35:44;0.60;99.90
47600;DHT22;33323;52.124;6.018;2023-12-04T04:38:11;0.60;99.90
47600;DHT22;33323;52.124;6.018;2023-12-04T04:40:38;0.60;99.90
47600;DHT22;33323;52.124;6.018;2023-12-04T04:43:10;0.60;99.90
47600;DHT22;33323;52.124;6.018;2023-12-04T04:45:37;0.60;99.90
47600;DHT22;33323;52.124;6.018;2023-12-04T04:48:04;0.60;99.90
47600;DHT22;33323;52.124;6.018;2023-12-04T04:50:32;0.60;99.90
47600;DHT22;33323;52.124;6.018;2023-12-04T04:52:59;0.60;99.90
47600;DHT22;33323;52.124;6.018;2023-12-04T04:55:26;0.60;99.90
47600;DHT22;33323;52.124;6.018;2023-12-04T04:58:13;0.60;99.90
47600;DHT22;33323;52.124;6.018;2023-12-04T05:00:40;0.60;99.90
47600;DHT22;33323;52.124;6.018;2023-12-04T05:03:07;0.50;99.90
47600;DHT22;33323;52.124;6.018;2023-12-04T05:05:34;0.50;99.90
47600;DHT22;33323;52.124;6.018;2023-12-04T05:08:01;0.50;99.90
47600;DHT22;33323;52.124;6.018;2023-12-04T05:10:28;0.50;99.90
47600;DHT22;33323;52.124;6.018;2023-12-04T05:12:55;0.50;99.90
47600;DHT22;33323;52.124;6.018;2023-12-04T05:15:22;0.50;99.90
47600;DHT22;33323;52.124;6.018;2023-12-04T05:17:49;0.50;99.90
47600;DHT22;33323;52.124;6.018;2023-12-04T05:20:17;0.50;99.90
47600;DHT22;33323;52.124;6.018;2023-12-04T05:22:44;0.50;99.90
47600;DHT22;33323;52.124;6.018;2023-12-04T05:25:11;0.50;99.90
47600;DHT22;33323;52.124;6.018;2023-12-04T05:27:38;0.50;99.90
47600;DHT22;33323;52.124;6.018;2023-12-04T05:30:06;0.50;99.90
47600;DHT22;33323;52.124;6.018;2023-12-04T05:32:33;0.50;99.90
47600;DHT22;33323;52.124;6.018;2023-12-04T05:35:00;0.50;99.90
47600;DHT22;33323;52.124;6.018;2023-12-04T05:37:27;0.50;99.90
47600;DHT22;33323;52.124;6.018;2023-12-04T05:39:54;0.60;99.90
47600;DHT22;33323;52.124;6.018;2023-12-04T05:42:21;0.50;99.90
47600;DHT22;33323;52.124;6.018;2023-12-04T05:44:48;0.50;99.90
47600;DHT22;33323;52.124;6.018;2023-12-04T05:47:15;0.50;99.90
47600;DHT22;33323;52.124;6.018;2023-12-04T05:49:42;0.50;99.90
47600;DHT22;33323;52.124;6.018;2023-12-04T05:52:09;0.50;99.90
47600;DHT22;33323;52.124;6.018;2023-12-04T05:54:36;0.50;99.90
47600;DHT22;33323;52.124;6.018;2023-12-04T05:57:04;0.50;99.90
47600;DHT22;33323;52.124;6.018;2023-12-04T05:59:31;0.50;99.90
47600;DHT22;33323;52.124;6.018;2023-12-04T06:01:58;0.50;99.90
47600;DHT22;33323;52.124;6.018;2023-12-04T06:04:26;0.50;99.90
47600;DHT22;33323;52.124;6.018;2023-12-04T06:06:53;0.50;99.90
47600;DHT22;33323;52.124;6.018;2023-12-04T06:09:20;0.50;99.90
47600;DHT22;33323;52.124;6.018;2023-12-04T06:11:47;0.50;99.90
47600;DHT22;33323;52.124;6.018;2023-12-04T06:14:14;0.50;99.90
47600;DHT22;33323;52.124;6.018;2023-12-04T06:16:41;0.50;99.90
47600;DHT22;33323;52.124;6.018;2023-12-04T06:19:08;0.50;99.90
47600;DHT22;33323;52.124;6.018;2023-12-04T06:21:35;0.50;99.90
47600;DHT22;33323;52.124;6.018;2023-12-04T06:24:03;0.50;99.90
47600;DHT22;33323;52.124;6.018;2023-12-04T06:26:35;0.50;99.90
47600;DHT22;33323;52.124;6.018;2023-12-04T06:29:03;0.50;99.90
47600;DHT22;33323;52.124;6.018;2023-12-04T06:31:30;0.50;99.90
47600;DHT22;33323;52.124;6.018;2023-12-04T06:33:58;0.50;99.90
47600;DHT22;33323;52.124;6.018;2023-12-04T06:36:25;0.40;99.90
47600;DHT22;33323;52.124;6.018;2023-12-04T06:38:56;0.50;99.90
47600;DHT22;33323;52.124;6.018;2023-12-04T06:41:23;0.50;99.90
47600;DHT22;33323;52.124;6.018;2023-12-04T06:43:51;0.50;99.90
47600;DHT22;33323;52.124;6.018;2023-12-04T06:46:21;0.50;99.90
47600;DHT22;33323;52.124;6.018;2023-12-04T06:48:54;0.50;99.90
47600;DHT22;33323;52.124;6.018;2023-12-04T06:51:24;0.50;99.90
47600;DHT22;33323;52.124;6.018;2023-12-04T06:53:50;0.50;99.90
47600;DHT22;33323;52.124;6.018;2023-12-04T06:56:17;0.50;99.90
47600;DHT22;33323;52.124;6.018;2023-12-04T06:58:46;0.50;99.90
47600;DHT22;33323;52.124;6.018;2023-12-04T07:01:14;0.50;99.90
47600;DHT22;33323;52.124;6.018;2023-12-04T07:03:41;0.50;99.90
47600;DHT22;33323;52.124;6.018;2023-12-04T07:06:08;0.50;99.90
47600;DHT22;33323;52.124;6.018;2023-12-04T07:08:35;0.60;99.90
47600;DHT22;33323;52.124;6.018;2023-12-04T07:11:02;0.60;99.90
47600;DHT22;33323;52.124;6.018;2023-12-04T07:13:29;0.60;99.90
47600;DHT22;33323;52.124;6.018;2023-12-04T07:15:58;0.60;99.90
47600;DHT22;33323;52.124;6.018;2023-12-04T07:18:26;0.60;99.90
47600;DHT22;33323;52.124;6.018;2023-12-04T07:20:53;0.60;99.90
47600;DHT22;33323;52.124;6.018;2023-12-04T07:23:21;0.60;99.90
47600;DHT22;33323;52.124;6.018;2023-12-04T07:25:52;0.60;99.90
47600;DHT22;33323;52.124;6.018;2023-12-04T07:28:19;0.60;99.90
47600;DHT22;33323;52.124;6.018;2023-12-04T07:30:46;0.70;99.90
47600;DHT22;33323;52.124;6.018;2023-12-04T07:33:13;0.60;99.90
47600;DHT22;33323;52.124;6.018;2023-12-04T07:35:40;0.60;99.90
47600;DHT22;33323;52.124;6.018;2023-12-04T07:38:07;0.70;99.90
47600;DHT22;33323;52.124;6.018;2023-12-04T07:40:34;0.70;99.90
47600;DHT22;33323;52.124;6.018;2023-12-04T07:43:01;0.70;99.90
47600;DHT22;33323;52.124;6.018;2023-12-04T07:45:29;0.70;99.90
47600;DHT22;33323;52.124;6.018;2023-12-04T07:47:56;0.70;99.90
47600;DHT22;33323;52.124;6.018;2023-12-04T07:50:23;0.60;99.90
47600;DHT22;33323;52.124;6.018;2023-12-04T07:52:51;0.70;99.90
47600;DHT22;33323;52.124;6.018;2023-12-04T07:55:18;0.80;99.90
47600;DHT22;33323;52.124;6.018;2023-12-04T07:57:45;0.80;99.90
47600;DHT22;33323;52.124;6.018;2023-12-04T08:00:12;0.80;99.90
47600;DHT22;33323;52.124;6.018;2023-12-04T08:02:40;0.70;99.90
47600;DHT22;33323;52.124;6.018;2023-12-04T08:05:12;0.70;99.90
47600;DHT22;33323;52.124;6.018;2023-12-04T08:07:40;0.70;99.90
47600;DHT22;33323;52.124;6.018;2023-12-04T08:10:07;0.80;99.90
47600;DHT22;33323;52.124;6.018;2023-12-04T08:12:35;0.80;99.90
47600;DHT22;33323;52.124;6.018;2023-12-04T08:15:03;0.80;99.90
47600;DHT22;33323;52.124;6.018;2023-12-04T08:17:31;0.80;99.90
47600;DHT22;33323;52.124;6.018;2023-12-04T08:19:58;0.80;99.90
47600;DHT22;33323;52.124;6.018;2023-12-04T08:22:25;0.90;99.90
47600;DHT22;33323;52.124;6.018;2023-12-04T08:24:52;0.90;99.90
47600;DHT22;33323;52.124;6.018;2023-12-04T08:27:20;0.90;99.90
47600;DHT22;33323;52.124;6.018;2023-12-04T08:29:47;0.90;99.90
47600;DHT22;33323;52.124;6.018;2023-12-04T08:32:14;0.90;99.90
47600;DHT22;33323;52.124;6.018;2023-12-04T08:34:41;0.90;99.90
47600;DHT22;33323;52.124;6.018;2023-12-04T08:37:08;0.90;99.90
47600;DHT22;33323;52.124;6.018;2023-12-04T08:39:35;0.90;99.90
47600;DHT22;33323;52.124;6.018;2023-12-04T08:42:02;0.90;99.90
47600;DHT22;33323;52.124;6.018;2023-12-04T08:44:35;0.90;99.90
47600;DHT22;33323;52.124;6.018;2023-12-04T08:47:02;0.90;99.90
47600;DHT22;33323;52.124;6.018;2023-12-04T08:49:30;0.90;99.90
47600;DHT22;33323;52.124;6.018;2023-12-04T08:52:09;1.00;99.90
47600;DHT22;33323;52.124;6.018;2023-12-04T08:54:40;0.90;99.90
47600;DHT22;33323;52.124;6.018;2023-12-04T08:57:08;1.00;99.90
47600;DHT22;33323;52.124;6.018;2023-12-04T08:59:36;1.00;99.90
47600;DHT22;33323;52.124;6.018;2023-12-04T09:02:03;1.00;99.90
47600;DHT22;33323;52.124;6.018;2023-12-04T09:04:31;1.00;99.90
47600;DHT22;33323;52.124;6.018;2023-12-04T09:07:00;1.00;99.90
47600;DHT22;33323;52.124;6.018;2023-12-04T09:09:29;1.10;99.90
47600;DHT22;33323;52.124;6.018;2023-12-04T09:11:58;1.10;99.90
47600;DHT22;33323;52.124;6.018;2023-12-04T09:14:24;1.10;99.90
47600;DHT22;33323;52.124;6.018;2023-12-04T09:16:55;1.10;99.90
47600;DHT22;33323;52.124;6.018;2023-12-04T09:19:22;1.10;99.90
47600;DHT22;33323;52.124;6.018;2023-12-04T09:21:49;1.10;99.90
47600;DHT22;33323;52.124;6.018;2023-12-04T09:24:33;1.10;99.90
47600;DHT22;33323;52.124;6.018;2023-12-04T09:27:08;1.20;99.90
47600;DHT22;33323;52.124;6.018;2023-12-04T09:29:35;1.30;99.90
47600;DHT22;33323;52.124;6.018;2023-12-04T09:32:03;1.30;99.90
47600;DHT22;33323;52.124;6.018;2023-12-04T09:34:33;1.30;99.90
47600;DHT22;33323;52.124;6.018;2023-12-04T09:37:01;1.30;99.90
47600;DHT22;33323;52.124;6.018;2023-12-04T09:39:37;1.30;99.90
47600;DHT22;33323;52.124;6.018;2023-12-04T09:42:05;1.30;99.90
47600;DHT22;33323;52.124;6.018;2023-12-04T09:44:37;1.30;99.90
47600;DHT22;33323;52.124;6.018;2023-12-04T09:47:08;1.30;99.90
47600;DHT22;33323;52.124;6.018;2023-12-04T09:49:39;1.30;99.90
47600;DHT22;33323;52.124;6.018;2023-12-04T09:52:07;1.40;99.90
47600;DHT22;33323;52.124;6.018;2023-12-04T09:54:36;1.40;99.90
47600;DHT22;33323;52.124;6.018;2023-12-04T09:57:05;1.40;99.90
47600;DHT22;33323;52.124;6.018;2023-12-04T09:59:35;1.50;99.90
47600;DHT22;33323;52.124;6.018;2023-12-04T10:02:08;1.50;99.90
47600;DHT22;33323;52.124;6.018;2023-12-04T10:04:36;1.50;99.90
47600;DHT22;33323;52.124;6.018;2023-12-04T10:07:04;1.60;99.90
47600;DHT22;33323;52.124;6.018;2023-12-04T10:09:32;1.60;99.90
47600;DHT22;33323;52.124;6.018;2023-12-04T10:11:59;1.60;99.90
47600;DHT22;33323;52.124;6.018;2023-12-04T10:14:29;1.70;99.90
47600;DHT22;33323;52.124;6.018;2023-12-04T10:16:57;1.70;99.90
47600;DHT22;33323;52.124;6.018;2023-12-04T10:19:28;1.80;99.90
47600;DHT22;33323;52.124;6.018;2023-12-04T10:21:59;1.70;99.90
47600;DHT22;33323;52.124;6.018;2023-12-04T10:27:02;1.80;99.90
47600;DHT22;33323;52.124;6.018;2023-12-04T10:29:46;1.80;99.90
47600;DHT22;33323;52.124;6.018;2023-12-04T10:32:19;1.90;99.90
47600;DHT22;33323;52.124;6.018;2023-12-04T10:34:50;1.80;99.90
47600;DHT22;33323;52.124;6.018;2023-12-04T10:37:17;1.80;99.90
47600;DHT22;33323;52.124;6.018;2023-12-04T10:40:06;1.80;99.90
47600;DHT22;33323;52.124;6.018;2023-12-04T10:42:36;1.80;99.90
47600;DHT22;33323;52.124;6.018;2023-12-04T10:45:05;1.80;99.90
47600;DHT22;33323;52.124;6.018;2023-12-04T10:47:36;1.80;99.90
47600;DHT22;33323;52.124;6.018;2023-12-04T10:50:05;1.80;99.90
47600;DHT22;33323;52.124;6.018;2023-12-04T10:52:39;1.90;99.90
47600;DHT22;33323;52.124;6.018;2023-12-04T10:55:09;1.80;99.90
47600;DHT22;33323;52.124;6.018;2023-12-04T10:57:43;1.90;99.90
47600;DHT22;33323;52.124;6.018;2023-12-04T11:00:18;1.90;99.90
47600;DHT22;33323;52.124;6.018;2023-12-04T11:02:48;1.90;99.90
47600;DHT22;33323;52.124;6.018;2023-12-04T11:05:20;1.90;99.90
47600;DHT22;33323;52.124;6.018;2023-12-04T11:08:00;1.90;99.90
47600;DHT22;33323;52.124;6.018;2023-12-04T11:10:51;1.90;99.90
47600;DHT22;33323;52.124;6.018;2023-12-04T11:13:28;1.90;99.90
47600;DHT22;33323;52.124;6.018;2023-12-04T11:16:07;2.00;99.90
47600;DHT22;33323;52.124;6.018;2023-12-04T11:19:06;2.00;99.90
47600;DHT22;33323;52.124;6.018;2023-12-04T11:22:06;2.10;99.90
47600;DHT22;33323;52.124;6.018;2023-12-04T11:24:43;2.10;99.90
47600;DHT22;33323;52.124;6.018;2023-12-04T11:27:18;2.20;99.90
47600;DHT22;33323;52.124;6.018;2023-12-04T11:29:57;2.10;99.90
47600;DHT22;33323;52.124;6.018;2023-12-04T11:32:44;2.20;99.90
47600;DHT22;33323;52.124;6.018;2023-12-04T11:35:20;2.20;99.90
47600;DHT22;33323;52.124;6.018;2023-12-04T11:37:55;2.30;99.90
47600;DHT22;33323;52.124;6.018;2023-12-04T11:40:27;2.30;99.90
47600;DHT22;33323;52.124;6.018;2023-12-04T11:42:57;2.30;99.90
47600;DHT22;33323;52.124;6.018;2023-12-04T11:45:32;2.30;99.90
47600;DHT22;33323;52.124;6.018;2023-12-04T11:48:03;2.30;99.90
47600;DHT22;33323;52.124;6.018;2023-12-04T11:50:34;2.30;99.90
47600;DHT22;33323;52.124;6.018;2023-12-04T11:56:21;2.40;99.90
47600;DHT22;33323;52.124;6.018;2023-12-04T11:59:13;2.40;99.90
47600;DHT22;33323;52.124;6.018;2023-12-04T12:01:50;2.40;99.90
47600;DHT22;33323;52.124;6.018;2023-12-04T12:04:48;2.30;99.90
47600;DHT22;33323;52.124;6.018;2023-12-04T12:07:40;2.40;99.90
47600;DHT22;33323;52.124;6.018;2023-12-04T12:10:11;2.40;99.90
47600;DHT22;33323;52.124;6.018;2023-12-04T12:12:44;2.30;99.90
47600;DHT22;33323;52.124;6.018;2023-12-04T12:15:18;2.30;99.90
47600;DHT22;33323;52.124;6.018;2023-12-04T12:23:33;2.30;99.90
47600;DHT22;33323;52.124;6.018;2023-12-04T12:35:48;2.30;99.90
47600;DHT22;33323;52.124;6.018;2023-12-04T12:38:36;2.20;99.90
47600;DHT22;33323;52.124;6.018;2023-12-04T12:41:08;2.20;99.90
47600;DHT22;33323;52.124;6.018;2023-12-04T12:58:12;2.30;99.90
47600;DHT22;33323;52.124;6.018;2023-12-04T13:10:18;2.40;99.90
47600;DHT22;33323;52.124;6.018;2023-12-04T13:33:24;2.50;99.90
47600;DHT22;33323;52.124;6.018;2023-12-04T13:35:56;2.50;99.90
47600;DHT22;33323;52.124;6.018;2023-12-04T13:47:13;2.60;99.90
47600;DHT22;33323;52.124;6.018;2023-12-04T14:02:35;2.50;99.90
47600;DHT22;33323;52.124;6.018;2023-12-04T14:05:08;2.50;99.90
47600;DHT22;33323;52.124;6.018;2023-12-04T14:07:48;2.60;99.90
47600;DHT22;33323;52.124;6.018;2023-12-04T14:16:49;2.50;99.90
47600;DHT22;33323;52.124;6.018;2023-12-04T14:25:02;2.60;99.90
47600;DHT22;33323;52.124;6.018;2023-12-04T14:33:56;2.40;99.90
47600;DHT22;33323;52.124;6.018;2023-12-04T14:36:28;2.40;99.90
47600;DHT22;33323;52.124;6.018;2023-12-04T15:00:48;2.20;99.90
47600;DHT22;33323;52.124;6.018;2023-12-04T15:03:19;2.20;99.90
47600;DHT22;33323;52.124;6.018;2023-12-04T15:06:09;2.20;99.90
47600;DHT22;33323;52.124;6.018;2023-12-04T15:09:03;2.20;99.90
47600;DHT22;33323;52.124;6.018;2023-12-04T15:11:53;2.20;99.90
47600;DHT22;33323;52.124;6.018;2023-12-04T15:14:40;2.20;99.90
47600;DHT22;33323;52.124;6.018;2023-12-04T15:17:23;2.30;99.90
47600;DHT22;33323;52.124;6.018;2023-12-04T15:20:01;2.30;99.90
47600;DHT22;33323;52.124;6.018;2023-12-04T15:23:26;2.20;99.90
47600;DHT22;33323;52.124;6.018;2023-12-04T15:25:56;2.20;99.90
47600;DHT22;33323;52.124;6.018;2023-12-04T15:28:24;2.20;99.90
47600;DHT22;33323;52.124;6.018;2023-12-04T15:30:55;2.20;99.90
47600;DHT22;33323;52.124;6.018;2023-12-04T15:33:30;2.20;99.90
47600;DHT22;33323;52.124;6.018;2023-12-04T15:36:02;2.20;99.90
47600;DHT22;33323;52.124;6.018;2023-12-04T15:38:31;2.30;99.90
47600;DHT22;33323;52.124;6.018;2023-12-04T15:40:59;2.30;99.90
47600;DHT22;33323;52.124;6.018;2023-12-04T15:43:37;2.30;99.90
47600;DHT22;33323;52.124;6.018;2023-12-04T15:46:08;2.30;99.90
47600;DHT22;33323;52.124;6.018;2023-12-04T15:48:48;2.30;99.90
47600;DHT22;33323;52.124;6.018;2023-12-04T15:51:20;2.30;99.90
47600;DHT22;33323;52.124;6.018;2023-12-04T15:53:52;2.30;99.90
47600;DHT22;33323;52.124;6.018;2023-12-04T15:56:24;2.30;99.90
47600;DHT22;33323;52.124;6.018;2023-12-04T15:59:00;2.20;99.90
47600;DHT22;33323;52.124;6.018;2023-12-04T16:01:37;2.20;99.90
47600;DHT22;33323;52.124;6.018;2023-12-04T16:04:05;2.20;99.90
47600;DHT22;33323;52.124;6.018;2023-12-04T16:06:35;2.20;99.90
47600;DHT22;33323;52.124;6.018;2023-12-04T16:09:04;2.20;99.90
47600;DHT22;33323;52.124;6.018;2023-12-04T16:11:43;2.10;99.90
47600;DHT22;33323;52.124;6.018;2023-12-04T16:14:14;2.20;99.90
47600;DHT22;33323;52.124;6.018;2023-12-04T16:16:54;2.10;99.90
47600;DHT22;33323;52.124;6.018;2023-12-04T16:19:24;2.10;99.90
47600;DHT22;33323;52.124;6.018;2023-12-04T16:21:53;2.10;99.90
47600;DHT22;33323;52.124;6.018;2023-12-04T16:24:31;2.10;99.90
47600;DHT22;33323;52.124;6.018;2023-12-04T16:27:03;2.10;99.90
47600;DHT22;33323;52.124;6.018;2023-12-04T16:29:33;2.10;99.90
47600;DHT22;33323;52.124;6.018;2023-12-04T16:32:01;2.00;99.90
47600;DHT22;33323;52.124;6.018;2023-12-04T16:34:59;2.00;99.90
47600;DHT22;33323;52.124;6.018;2023-12-04T16:37:30;2.00;99.90
47600;DHT22;33323;52.124;6.018;2023-12-04T16:39:58;2.00;99.90
47600;DHT22;33323;52.124;6.018;2023-12-04T16:42:25;2.00;99.90
47600;DHT22;33323;52.124;6.018;2023-12-04T16:44:54;2.00;99.90
47600;DHT22;33323;52.124;6.018;2023-12-04T16:47:21;1.90;99.90
47600;DHT22;33323;52.124;6.018;2023-12-04T16:49:48;2.00;99.90
47600;DHT22;33323;52.124;6.018;2023-12-04T16:52:16;2.00;99.90
47600;DHT22;33323;52.124;6.018;2023-12-04T16:54:44;1.90;99.90
47600;DHT22;33323;52.124;6.018;2023-12-04T16:57:36;1.90;99.90
47600;DHT22;33323;52.124;6.018;2023-12-04T17:00:05;1.90;99.90
47600;DHT22;33323;52.124;6.018;2023-12-04T17:02:36;1.80;99.90
47600;DHT22;33323;52.124;6.018;2023-12-04T17:05:05;1.80;99.90
47600;DHT22;33323;52.124;6.018;2023-12-04T17:07:35;1.80;99.90
47600;DHT22;33323;52.124;6.018;2023-12-04T17:10:04;1.80;99.90
47600;DHT22;33323;52.124;6.018;2023-12-04T17:12:36;1.80;99.90
47600;DHT22;33323;52.124;6.018;2023-12-04T17:15:14;1.80;99.90
47600;DHT22;33323;52.124;6.018;2023-12-04T17:17:45;1.80;99.90
47600;DHT22;33323;52.124;6.018;2023-12-04T17:20:14;1.70;99.90
47600;DHT22;33323;52.124;6.018;2023-12-04T17:22:42;1.70;99.90
47600;DHT22;33323;52.124;6.018;2023-12-04T17:25:10;1.70;99.90
47600;DHT22;33323;52.124;6.018;2023-12-04T17:27:41;1.60;99.90
47600;DHT22;33323;52.124;6.018;2023-12-04T17:30:09;1.60;99.90
47600;DHT22;33323;52.124;6.018;2023-12-04T17:32:38;1.60;99.90
47600;DHT22;33323;52.124;6.018;2023-12-04T17:35:06;1.60;99.90
47600;DHT22;33323;52.124;6.018;2023-12-04T17:37:34;1.50;99.90
47600;DHT22;33323;52.124;6.018;2023-12-04T17:40:05;1.50;99.90
47600;DHT22;33323;52.124;6.018;2023-12-04T17:42:35;1.50;99.90
47600;DHT22;33323;52.124;6.018;2023-12-04T17:45:05;1.50;99.90
47600;DHT22;33323;52.124;6.018;2023-12-04T17:47:36;1.50;99.90
47600;DHT22;33323;52.124;6.018;2023-12-04T17:50:04;1.40;99.90
47600;DHT22;33323;52.124;6.018;2023-12-04T17:52:36;1.40;99.90
47600;DHT22;33323;52.124;6.018;2023-12-04T17:55:04;1.40;99.90
47600;DHT22;33323;52.124;6.018;2023-12-04T17:57:32;1.30;99.90
47600;DHT22;33323;52.124;6.018;2023-12-04T18:00:01;1.30;99.90
47600;DHT22;33323;52.124;6.018;2023-12-04T18:02:35;1.20;99.90
47600;DHT22;33323;52.124;6.018;2023-12-04T18:05:08;1.20;99.90
47600;DHT22;33323;52.124;6.018;2023-12-04T18:07:41;1.20;99.90
47600;DHT22;33323;52.124;6.018;2023-12-04T18:10:11;1.10;99.90
47600;DHT22;33323;52.124;6.018;2023-12-04T18:12:43;1.10;99.90